createdAt,value
2023-03-19T00:00:10.287Z,99059.50
2023-03-19T00:01:13.353Z,99064.53
2023-03-19T00:02:18.168Z,99062.16
2023-03-19T00:03:20.682Z,99061.59
2023-03-19T00:04:24.460Z,99063.22
2023-03-19T00:05:26.710Z,99057.78
2023-03-19T00:06:28.899Z,99059.09
2023-03-19T00:07:31.301Z,99062.38
2023-03-19T00:08:33.618Z,99059.59
2023-03-19T00:09:36.348Z,99060.47
2023-03-19T00:10:40.034Z,99060.41
2023-03-19T00:11:42.834Z,99063.22
2023-03-19T00:12:46.859Z,99056.72
2023-03-19T00:13:49.034Z,99056.72
2023-03-19T00:14:51.657Z,99060.72
2023-03-19T00:15:53.846Z,99058.56
2023-03-19T00:16:56.322Z,99063.69
2023-03-19T00:17:58.621Z,99063.69
2023-03-19T00:19:02.469Z,99064.19
2023-03-19T00:20:11.722Z,99071.41
2023-03-19T00:21:15.181Z,99070.25
2023-03-19T00:22:17.642Z,99062.22
2023-03-19T00:23:19.858Z,99056.34
2023-03-19T00:24:22.161Z,99061.53
2023-03-19T00:25:24.842Z,99050.84
2023-03-19T00:26:32.135Z,99058.50
2023-03-19T00:27:34.510Z,99060.00
2023-03-19T00:28:37.382Z,99055.03
2023-03-19T00:29:39.737Z,99056.56
2023-03-19T00:30:42.024Z,99050.50
2023-03-19T00:31:45.233Z,99049.50
2023-03-19T00:32:48.296Z,99048.47
2023-03-19T00:33:53.447Z,99053.84
2023-03-19T00:34:55.819Z,99055.41
2023-03-19T00:35:59.805Z,99060.47
2023-03-19T00:37:02.147Z,99059.47
2023-03-19T00:38:04.711Z,99050.22
2023-03-19T00:39:07.540Z,99054.41
2023-03-19T00:40:11.740Z,99057.03
2023-03-19T00:41:15.304Z,99052.13
2023-03-19T00:42:17.601Z,99054.88
2023-03-19T00:43:20.015Z,99050.16
2023-03-19T00:44:22.274Z,99046.38
2023-03-19T00:45:24.498Z,99056.47
2023-03-19T00:46:27.288Z,99046.63
2023-03-19T00:47:29.661Z,99050.03
2023-03-19T00:48:32.342Z,99040.13
2023-03-19T00:49:34.529Z,99051.34
2023-03-19T00:50:37.513Z,99043.41
2023-03-19T00:51:43.627Z,99048.66
2023-03-19T00:52:46.934Z,99051.97
2023-03-19T00:53:49.393Z,99059.00
2023-03-19T00:54:51.773Z,99055.31
2023-03-19T00:55:54.361Z,99057.09
2023-03-19T00:56:56.891Z,99060.38
2023-03-19T00:57:59.232Z,99062.41
2023-03-19T00:59:01.521Z,99066.50
2023-03-19T01:00:04.789Z,99067.09
2023-03-19T01:01:08.286Z,99065.13
2023-03-19T01:02:10.869Z,99068.31
2023-03-19T01:03:13.096Z,99063.28
2023-03-19T01:04:15.379Z,99077.19
2023-03-19T01:05:17.692Z,99073.31
2023-03-19T01:06:19.961Z,99077.59
2023-03-19T01:07:23.403Z,99070.91
2023-03-19T01:08:25.696Z,99074.09
2023-03-19T01:09:28.003Z,99083.88
2023-03-19T01:10:33.714Z,99082.09
2023-03-19T01:11:37.132Z,99082.97
2023-03-19T01:12:39.351Z,99087.34
2023-03-19T01:13:42.285Z,99092.72
2023-03-19T01:14:44.726Z,99090.19
2023-03-19T01:15:47.043Z,99093.84
2023-03-19T01:16:49.356Z,99080.56
2023-03-19T01:17:51.596Z,99095.81
2023-03-19T01:18:53.911Z,99087.66
2023-03-19T01:19:56.355Z,99097.38
2023-03-19T01:20:58.910Z,99092.03
2023-03-19T01:22:04.399Z,99093.19
2023-03-19T01:23:08.616Z,99086.19
2023-03-19T01:24:11.780Z,99086.50
2023-03-19T01:25:16.524Z,99097.00
2023-03-19T01:26:28.717Z,99085.81
2023-03-19T01:27:38.256Z,99089.44
2023-03-19T01:28:41.414Z,99094.97
2023-03-19T01:29:44.595Z,99084.88
2023-03-19T01:31:08.481Z,99089.66
2023-03-19T01:32:26.807Z,99096.31
2023-03-19T01:33:48.328Z,99096.31
2023-03-19T01:35:07.537Z,99094.44
2023-03-19T01:36:10.885Z,99093.28
2023-03-19T01:37:25.355Z,99100.22
2023-03-19T01:38:28.908Z,99094.84
2023-03-19T01:39:36.752Z,99093.06
2023-03-19T01:40:47.958Z,99086.22
2023-03-19T01:41:50.752Z,99093.06
2023-03-19T01:43:35.500Z,99100.97
2023-03-19T01:44:49.172Z,99101.72
2023-03-19T01:46:04.487Z,99101.56
2023-03-19T01:47:19.079Z,99105.25
2023-03-19T01:49:02.733Z,99105.97
2023-03-19T01:50:06.091Z,99107.50
2023-03-19T01:51:11.181Z,99108.06
2023-03-19T01:52:27.334Z,99111.53
2023-03-19T01:53:47.737Z,99117.28
2023-03-19T01:54:56.132Z,99109.22
2023-03-19T01:56:23.921Z,99118.00
2023-03-19T01:57:44.683Z,99117.69
2023-03-19T01:59:06.512Z,99118.88
2023-03-19T02:00:30.434Z,99121.22
2023-03-19T02:01:38.334Z,99125.91
2023-03-19T02:02:42.227Z,99123.56
2023-03-19T02:03:53.753Z,99117.63
2023-03-19T02:05:08.488Z,99115.47
2023-03-19T02:06:13.573Z,99115.88
2023-03-19T02:07:16.788Z,99120.84
2023-03-19T02:08:20.987Z,99115.56
2023-03-19T02:09:25.599Z,99120.09
2023-03-19T02:10:29.698Z,99120.84
2023-03-19T02:11:32.351Z,99120.50
2023-03-19T02:12:35.232Z,99117.88
2023-03-19T02:13:37.826Z,99116.94
2023-03-19T02:14:40.311Z,99117.19
2023-03-19T02:15:42.794Z,99125.97
2023-03-19T02:16:45.421Z,99122.50
2023-03-19T02:17:48.077Z,99119.03
2023-03-19T02:18:50.395Z,99114.69
2023-03-19T02:20:13.790Z,99114.78
2023-03-19T02:21:19.536Z,99109.59
2023-03-19T02:22:27.680Z,99116.41
2023-03-19T02:24:01.508Z,99121.59
2023-03-19T02:25:32.835Z,99112.94
2023-03-19T02:26:36.856Z,99124.28
2023-03-19T02:27:39.895Z,99115.56
2023-03-19T02:28:44.463Z,99115.88
2023-03-19T02:29:52.072Z,99118.75
2023-03-19T02:30:55.851Z,99114.91
2023-03-19T02:31:58.670Z,99112.28
2023-03-19T02:33:01.186Z,99117.72
2023-03-19T02:34:05.482Z,99120.22
2023-03-19T02:35:10.238Z,99115.09
2023-03-19T02:36:19.558Z,99118.69
2023-03-19T02:37:32.897Z,99119.50
2023-03-19T02:38:38.602Z,99117.00
2023-03-19T02:40:22.461Z,99115.22
2023-03-19T02:41:26.311Z,99105.59
2023-03-19T02:42:30.235Z,99110.94
2023-03-19T02:43:35.766Z,99117.84
2023-03-19T02:44:39.714Z,99110.78
2023-03-19T02:45:42.658Z,99109.84
2023-03-19T02:46:45.076Z,99115.88
2023-03-19T02:47:47.510Z,99118.56
2023-03-19T02:48:53.808Z,99114.25
2023-03-19T02:49:56.749Z,99113.44
2023-03-19T02:50:59.824Z,99109.13
2023-03-19T02:52:02.129Z,99123.88
2023-03-19T02:53:04.423Z,99121.25
2023-03-19T02:54:08.436Z,99119.50
2023-03-19T02:55:10.942Z,99110.81
2023-03-19T02:56:13.912Z,99121.31
2023-03-19T02:57:16.788Z,99109.97
2023-03-19T02:58:20.587Z,99115.59
2023-03-19T02:59:23.977Z,99123.13
2023-03-19T03:02:12.336Z,99107.31
2023-03-19T03:03:14.961Z,99115.84
2023-03-19T03:04:18.092Z,99112.97
2023-03-19T03:05:26.570Z,99108.59
2023-03-19T03:06:29.172Z,99115.53
2023-03-19T03:07:31.745Z,99105.03
2023-03-19T03:08:34.841Z,99105.03
2023-03-19T03:09:37.995Z,99101.50
2023-03-19T03:10:40.948Z,99116.56
2023-03-19T03:11:43.651Z,99113.91
2023-03-19T03:12:47.540Z,99118.22
2023-03-19T03:13:53.301Z,99116.50
2023-03-19T03:14:56.040Z,99120.41
2023-03-19T03:16:01.067Z,99116.41
2023-03-19T03:17:04.128Z,99126.66
2023-03-19T03:18:09.673Z,99129.94
2023-03-19T03:19:12.550Z,99127.06
2023-03-19T03:20:17.848Z,99136.41
2023-03-19T03:21:21.729Z,99131.22
2023-03-19T03:22:23.902Z,99129.47
2023-03-19T03:23:27.679Z,99130.19
2023-03-19T03:24:34.560Z,99128.09
2023-03-19T03:25:37.490Z,99128.97
2023-03-19T03:26:40.019Z,99131.25
2023-03-19T03:27:45.899Z,99129.56
2023-03-19T03:28:48.223Z,99133.06
2023-03-19T03:29:50.637Z,99137.38
2023-03-19T03:31:01.878Z,99125.09
2023-03-19T03:32:05.179Z,99133.28
2023-03-19T03:33:07.659Z,99133.56
2023-03-19T03:34:12.641Z,99131.69
2023-03-19T03:35:21.683Z,99128.09
2023-03-19T03:36:24.928Z,99136.56
2023-03-19T03:37:31.030Z,99131.13
2023-03-19T03:38:36.952Z,99127.84
2023-03-19T03:39:39.231Z,99135.53
2023-03-19T03:40:43.461Z,99134.66
2023-03-19T03:41:45.921Z,99132.47
2023-03-19T03:42:48.960Z,99125.66
2023-03-19T03:43:51.418Z,99136.69
2023-03-19T03:44:57.310Z,99131.09
2023-03-19T03:46:02.843Z,99133.66
2023-03-19T03:47:05.598Z,99133.41
2023-03-19T03:48:10.278Z,99138.63
2023-03-19T03:49:12.612Z,99135.56
2023-03-19T03:50:15.925Z,99135.69
2023-03-19T03:51:19.943Z,99137.50
2023-03-19T03:52:23.970Z,99128.44
2023-03-19T03:53:30.364Z,99129.75
2023-03-19T03:54:33.495Z,99144.63
2023-03-19T03:55:36.834Z,99144.81
2023-03-19T03:56:39.880Z,99142.78
2023-03-19T03:57:46.013Z,99143.34
2023-03-19T03:58:53.109Z,99144.97
2023-03-19T03:59:56.091Z,99140.72
2023-03-19T04:00:59.382Z,99145.03
2023-03-19T04:02:06.568Z,99148.59
2023-03-19T04:03:10.488Z,99150.69
2023-03-19T04:04:15.120Z,99156.88
2023-03-19T04:05:18.098Z,99154.31
2023-03-19T04:06:26.423Z,99150.69
2023-03-19T04:08:08.616Z,99156.91
2023-03-19T04:09:11.965Z,99156.31
2023-03-19T04:10:15.366Z,99155.03
2023-03-19T04:11:18.190Z,99161.13
2023-03-19T04:12:20.430Z,99155.94
2023-03-19T04:13:23.442Z,99151.25
2023-03-19T04:14:27.068Z,99162.56
2023-03-19T04:15:29.560Z,99161.00
2023-03-19T04:16:38.214Z,99158.47
2023-03-19T04:17:52.471Z,99155.28
2023-03-19T04:18:55.039Z,99158.13
2023-03-19T04:19:57.447Z,99155.28
2023-03-19T04:21:03.307Z,99151.53
2023-03-19T04:22:08.981Z,99151.03
2023-03-19T04:23:11.968Z,99147.84
2023-03-19T04:24:16.079Z,99153.69
2023-03-19T04:25:19.450Z,99155.56
2023-03-19T04:26:22.385Z,99156.16
2023-03-19T04:27:26.081Z,99150.59
2023-03-19T04:28:32.156Z,99148.59
2023-03-19T04:29:35.140Z,99153.09
2023-03-19T04:30:38.999Z,99148.91
2023-03-19T04:31:42.097Z,99144.81
2023-03-19T04:32:44.499Z,99154.44
2023-03-19T04:33:47.103Z,99155.47
2023-03-19T04:34:49.666Z,99143.28
2023-03-19T04:35:55.712Z,99150.13
2023-03-19T04:36:58.821Z,99151.44
2023-03-19T04:38:01.352Z,99153.09
2023-03-19T04:39:04.711Z,99150.88
2023-03-19T04:40:07.695Z,99155.78
2023-03-19T04:41:14.146Z,99150.22
2023-03-19T04:42:38.636Z,99149.09
2023-03-19T04:43:48.234Z,99152.44
2023-03-19T04:44:51.144Z,99152.44
2023-03-19T04:45:53.992Z,99156.00
2023-03-19T04:46:58.281Z,99156.06
2023-03-19T04:48:04.020Z,99145.94
2023-03-19T04:49:09.161Z,99158.47
2023-03-19T04:50:13.350Z,99158.84
2023-03-19T04:51:18.698Z,99153.06
2023-03-19T04:52:21.154Z,99170.16
2023-03-19T04:53:25.048Z,99165.16
2023-03-19T04:54:29.611Z,99161.19
2023-03-19T04:55:34.246Z,99157.44
2023-03-19T04:56:56.447Z,99168.19
2023-03-19T04:58:03.246Z,99169.13
2023-03-19T04:59:11.149Z,99169.78
2023-03-19T05:00:14.618Z,99164.09
2023-03-19T05:01:20.848Z,99166.06
2023-03-19T05:02:33.898Z,99170.19
2023-03-19T05:03:36.180Z,99170.09
2023-03-19T05:04:38.890Z,99166.59
2023-03-19T05:05:45.381Z,99168.50
2023-03-19T05:06:49.984Z,99171.75
2023-03-19T05:07:52.254Z,99180.63
2023-03-19T05:08:54.501Z,99177.03
2023-03-19T05:09:57.936Z,99173.81
2023-03-19T05:11:00.915Z,99173.44
2023-03-19T05:12:11.800Z,99177.97
2023-03-19T05:13:21.660Z,99179.72
2023-03-19T05:14:26.743Z,99184.00
2023-03-19T05:15:50.336Z,99176.16
2023-03-19T05:16:55.989Z,99179.31
2023-03-19T05:17:59.371Z,99185.06
2023-03-19T05:19:09.460Z,99181.47
2023-03-19T05:20:12.789Z,99186.53
2023-03-19T05:21:20.630Z,99185.78
2023-03-19T05:22:24.955Z,99188.88
2023-03-19T05:23:30.136Z,99185.13
2023-03-19T05:24:38.490Z,99193.38
2023-03-19T05:25:41.034Z,99190.75
2023-03-19T05:26:46.680Z,99192.56
2023-03-19T05:27:58.397Z,99186.03
2023-03-19T05:29:01.337Z,99190.47
2023-03-19T05:30:18.173Z,99198.44
2023-03-19T05:31:26.697Z,99194.78
2023-03-19T05:32:30.721Z,99197.34
2023-03-19T05:33:37.396Z,99200.38
2023-03-19T05:34:41.112Z,99195.13
2023-03-19T05:35:43.966Z,99200.06
2023-03-19T05:36:54.797Z,99198.63
2023-03-19T05:37:58.752Z,99190.88
2023-03-19T05:39:03.566Z,99192.25
2023-03-19T05:40:12.366Z,99192.25
2023-03-19T05:41:17.673Z,99190.44
2023-03-19T05:42:30.558Z,99191.69
2023-03-19T05:43:34.613Z,99195.34
2023-03-19T05:44:42.234Z,99204.44
2023-03-19T05:45:59.118Z,99199.66
2023-03-19T05:47:12.532Z,99199.09
2023-03-19T05:48:21.137Z,99189.16
2023-03-19T05:49:30.466Z,99197.66
2023-03-19T05:50:36.406Z,99192.59
2023-03-19T05:51:54.527Z,99204.69
2023-03-19T05:52:58.348Z,99203.09
2023-03-19T05:54:06.525Z,99205.00
2023-03-19T05:55:31.078Z,99203.28
2023-03-19T05:56:55.014Z,99195.03
2023-03-19T05:58:23.436Z,99199.66
2023-03-19T05:59:32.409Z,99193.63
2023-03-19T06:01:00.950Z,99198.56
2023-03-19T06:02:03.827Z,99196.75
2023-03-19T06:03:08.619Z,99199.09
2023-03-19T06:04:28.514Z,99198.59
2023-03-19T06:05:31.882Z,99198.56
2023-03-19T06:06:41.432Z,99208.56
2023-03-19T06:07:43.786Z,99199.47
2023-03-19T06:08:54.425Z,99206.00
2023-03-19T06:10:14.582Z,99200.56
2023-03-19T06:11:16.925Z,99198.50
2023-03-19T06:12:24.793Z,99209.78
2023-03-19T06:13:32.740Z,99207.47
2023-03-19T06:14:39.852Z,99209.19
2023-03-19T06:16:04.229Z,99205.94
2023-03-19T06:17:11.902Z,99213.25
2023-03-19T06:18:14.214Z,99212.28
2023-03-19T06:19:16.736Z,99212.84
2023-03-19T06:20:22.228Z,99219.72
2023-03-19T06:21:29.454Z,99227.00
2023-03-19T06:22:35.103Z,99227.94
2023-03-19T06:23:37.896Z,99217.66
2023-03-19T06:24:41.951Z,99215.81
2023-03-19T06:25:45.413Z,99218.31
2023-03-19T06:26:48.433Z,99218.94
2023-03-19T06:27:58.578Z,99219.69
2023-03-19T06:29:08.440Z,99220.28
2023-03-19T06:30:15.169Z,99228.09
2023-03-19T06:31:21.378Z,99224.59
2023-03-19T06:32:31.750Z,99221.44
2023-03-19T06:33:43.446Z,99223.56
2023-03-19T06:34:49.070Z,99219.97
2023-03-19T06:35:51.562Z,99217.78
2023-03-19T06:36:55.093Z,99216.84
2023-03-19T06:37:59.068Z,99223.50
2023-03-19T06:39:01.657Z,99224.38
2023-03-19T06:40:07.890Z,99216.50
2023-03-19T06:41:10.164Z,99205.53
2023-03-19T06:42:13.216Z,99222.41
2023-03-19T06:43:15.954Z,99218.00
2023-03-19T06:44:21.187Z,99218.88
2023-03-19T06:45:23.959Z,99223.88
2023-03-19T06:46:26.363Z,99222.97
2023-03-19T06:47:28.735Z,99226.13
2023-03-19T06:48:31.155Z,99212.91
2023-03-19T06:49:33.437Z,99209.41
2023-03-19T06:50:35.917Z,99218.97
2023-03-19T06:51:38.430Z,99219.41
2023-03-19T06:52:41.055Z,99224.41
2023-03-19T06:53:43.282Z,99217.50
2023-03-19T06:54:45.676Z,99220.75
2023-03-19T06:55:48.005Z,99227.19
2023-03-19T06:56:50.840Z,99219.38
2023-03-19T06:57:53.119Z,99220.44
2023-03-19T06:58:55.686Z,99221.88
2023-03-19T06:59:57.938Z,99220.78
2023-03-19T07:01:00.260Z,99221.38
2023-03-19T07:02:03.111Z,99220.50
2023-03-19T07:03:05.433Z,99220.44
2023-03-19T07:04:08.327Z,99223.28
2023-03-19T07:05:10.732Z,99219.31
2023-03-19T07:06:12.874Z,99224.56
2023-03-19T07:07:15.106Z,99226.13
2023-03-19T07:08:18.030Z,99225.13
2023-03-19T07:09:20.677Z,99219.03
2023-03-19T07:10:22.996Z,99231.50
2023-03-19T07:11:25.418Z,99231.16
2023-03-19T07:12:28.009Z,99231.94
2023-03-19T07:13:30.605Z,99228.16
2023-03-19T07:14:32.888Z,99232.59
2023-03-19T07:15:36.205Z,99236.56
2023-03-19T07:16:38.529Z,99229.59
2023-03-19T07:17:41.259Z,99239.56
2023-03-19T07:18:43.446Z,99227.94
2023-03-19T07:19:45.812Z,99236.13
2023-03-19T07:20:48.067Z,99231.38
2023-03-19T07:21:50.554Z,99233.47
2023-03-19T07:22:53.501Z,99231.06
2023-03-19T07:23:56.339Z,99235.91
2023-03-19T07:24:58.632Z,99237.63
2023-03-19T07:26:00.880Z,99235.63
2023-03-19T07:27:03.137Z,99237.22
2023-03-19T07:28:05.446Z,99237.53
2023-03-19T07:29:08.458Z,99236.00
2023-03-19T07:30:12.114Z,99230.81
2023-03-19T07:31:14.509Z,99239.56
2023-03-19T07:32:16.830Z,99244.63
2023-03-19T07:33:20.376Z,99241.59
2023-03-19T07:34:23.178Z,99236.59
2023-03-19T07:35:25.447Z,99235.63
2023-03-19T07:36:27.768Z,99242.81
2023-03-19T07:37:29.979Z,99239.16
2023-03-19T07:38:32.194Z,99241.97
2023-03-19T07:39:34.440Z,99246.25
2023-03-19T07:40:37.036Z,99241.50
2023-03-19T07:41:39.406Z,99240.09
2023-03-19T07:42:44.982Z,99234.69
2023-03-19T07:43:47.353Z,99243.06
2023-03-19T07:44:49.685Z,99237.66
2023-03-19T07:45:51.855Z,99239.81
2023-03-19T07:46:54.056Z,99238.97
2023-03-19T07:47:56.250Z,99234.69
2023-03-19T07:48:58.426Z,99234.09
2023-03-19T07:50:00.665Z,99235.63
2023-03-19T07:51:02.957Z,99237.41
2023-03-19T07:52:05.746Z,99240.31
2023-03-19T07:53:07.989Z,99240.47
2023-03-19T07:54:10.193Z,99232.44
2023-03-19T07:55:12.821Z,99243.25
2023-03-19T07:56:15.116Z,99236.63
2023-03-19T07:57:17.502Z,99244.00
2023-03-19T07:58:19.806Z,99243.06
2023-03-19T07:59:22.073Z,99244.47
2023-03-19T08:00:24.322Z,99240.81
2023-03-19T08:01:26.789Z,99238.56
2023-03-19T08:02:29.149Z,99242.28
2023-03-19T08:03:31.442Z,99242.91
2023-03-19T08:04:33.783Z,99237.25
2023-03-19T08:05:36.059Z,99240.09
2023-03-19T08:06:38.723Z,99238.41
2023-03-19T08:07:41.288Z,99233.75
2023-03-19T08:08:43.598Z,99238.63
2023-03-19T08:09:45.791Z,99238.38
2023-03-19T08:10:50.614Z,99237.84
2023-03-19T08:11:52.915Z,99237.16
2023-03-19T08:12:55.130Z,99238.53
2023-03-19T08:13:57.396Z,99239.00
2023-03-19T08:14:59.944Z,99241.78
2023-03-19T08:16:02.202Z,99232.34
2023-03-19T08:17:04.621Z,99233.44
2023-03-19T08:18:07.597Z,99243.19
2023-03-19T08:19:09.853Z,99237.34
2023-03-19T08:20:16.214Z,99234.97
2023-03-19T08:21:18.660Z,99233.84
2023-03-19T08:22:21.006Z,99232.03
2023-03-19T08:23:23.364Z,99234.06
2023-03-19T08:24:25.816Z,99219.34
2023-03-19T08:25:32.292Z,99223.44
2023-03-19T08:26:34.648Z,99225.53
2023-03-19T08:27:36.921Z,99226.59
2023-03-19T08:28:39.177Z,99224.16
2023-03-19T08:29:41.499Z,99220.94
2023-03-19T08:30:43.781Z,99227.50
2023-03-19T08:31:46.303Z,99225.19
2023-03-19T08:32:50.147Z,99218.69
2023-03-19T08:33:52.602Z,99237.03
2023-03-19T08:34:54.893Z,99227.91
2023-03-19T08:36:05.429Z,99230.19
2023-03-19T08:37:07.860Z,99229.41
2023-03-19T08:38:11.083Z,99239.88
2023-03-19T08:39:13.763Z,99243.19
2023-03-19T08:40:16.252Z,99238.38
2023-03-19T08:41:18.498Z,99235.56
2023-03-19T08:42:21.616Z,99236.50
2023-03-19T08:43:23.907Z,99240.75
2023-03-19T08:44:26.845Z,99229.88
2023-03-19T08:45:29.290Z,99242.50
2023-03-19T08:46:34.500Z,99243.34
2023-03-19T08:47:39.216Z,99228.97
2023-03-19T08:48:41.925Z,99245.03
2023-03-19T08:49:44.284Z,99245.34
2023-03-19T08:50:56.047Z,99246.59
2023-03-19T08:51:58.545Z,99243.00
2023-03-19T08:53:00.939Z,99242.31
2023-03-19T08:54:03.354Z,99248.53
2023-03-19T08:55:11.840Z,99243.63
2023-03-19T08:56:21.475Z,99246.97
2023-03-19T08:57:24.322Z,99245.41
2023-03-19T08:58:27.411Z,99247.84
2023-03-19T08:59:31.447Z,99236.44
2023-03-19T09:00:35.121Z,99247.13
2023-03-19T09:01:52.839Z,99243.34
2023-03-19T09:02:55.077Z,99250.59
2023-03-19T09:03:57.454Z,99244.28
2023-03-19T09:04:59.677Z,99244.50
2023-03-19T09:06:03.914Z,99237.38
2023-03-19T09:07:06.256Z,99246.03
2023-03-19T09:08:09.071Z,99239.03
2023-03-19T09:09:11.497Z,99234.44
2023-03-19T09:10:13.756Z,99240.81
2023-03-19T09:11:17.517Z,99237.97
2023-03-19T09:12:23.953Z,99238.66
2023-03-19T09:13:26.613Z,99235.72
2023-03-19T09:14:29.608Z,99235.88
2023-03-19T09:15:32.604Z,99237.38
2023-03-19T09:16:38.187Z,99229.84
2023-03-19T09:17:40.714Z,99234.31
2023-03-19T09:18:43.230Z,99235.69
2023-03-19T09:19:45.700Z,99242.34
2023-03-19T09:20:48.351Z,99231.44
2023-03-19T09:21:51.219Z,99233.06
2023-03-19T09:22:53.563Z,99245.09
2023-03-19T09:23:56.077Z,99237.91
2023-03-19T09:24:58.357Z,99239.69
2023-03-19T09:26:01.113Z,99239.59
2023-03-19T09:27:03.943Z,99251.06
2023-03-19T09:28:06.920Z,99241.81
2023-03-19T09:29:09.414Z,99239.56
2023-03-19T09:30:12.488Z,99240.81
2023-03-19T09:31:14.753Z,99241.22
2023-03-19T09:32:23.578Z,99245.66
2023-03-19T09:33:26.312Z,99242.84
2023-03-19T09:34:29.208Z,99231.72
2023-03-19T09:35:38.524Z,99243.00
2023-03-19T09:36:41.369Z,99243.63
2023-03-19T09:37:44.660Z,99240.03
2023-03-19T09:38:47.239Z,99250.44
2023-03-19T09:39:49.515Z,99236.41
2023-03-19T09:41:38.338Z,99239.59
2023-03-19T09:42:53.091Z,99241.31
2023-03-19T09:44:19.965Z,99237.63
2023-03-19T09:45:23.521Z,99230.38
2023-03-19T09:46:52.345Z,99221.00
2023-03-19T09:48:04.206Z,99237.84
2023-03-19T09:49:17.015Z,99237.84
2023-03-19T09:50:23.528Z,99238.69
2023-03-19T09:51:34.812Z,99241.13
2023-03-19T09:52:41.195Z,99227.75
2023-03-19T09:54:07.061Z,99225.59
2023-03-19T09:55:24.234Z,99232.25
2023-03-19T09:56:27.068Z,99231.09
2023-03-19T09:57:29.944Z,99218.03
2023-03-19T09:58:35.024Z,99230.75
2023-03-19T09:59:39.224Z,99227.22
2023-03-19T10:00:42.777Z,99223.13
2023-03-19T10:01:52.864Z,99233.31
2023-03-19T10:03:31.776Z,99235.69
2023-03-19T10:04:44.587Z,99235.13
2023-03-19T10:05:59.188Z,99232.34
2023-03-19T10:07:19.850Z,99241.38
2023-03-19T10:08:48.278Z,99234.72
2023-03-19T10:10:13.326Z,99241.81
2023-03-19T10:11:31.071Z,99237.84
2023-03-19T10:13:23.643Z,99243.66
2023-03-19T10:14:48.706Z,99242.22
2023-03-19T10:15:53.785Z,99230.44
2023-03-19T10:17:01.093Z,99236.59
2023-03-19T10:18:16.123Z,99233.91
2023-03-19T10:19:24.569Z,99228.50
2023-03-19T10:20:38.638Z,99233.56
2023-03-19T10:21:48.651Z,99222.19
2023-03-19T10:23:00.494Z,99236.13
2023-03-19T10:24:31.152Z,99228.91
2023-03-19T10:25:39.763Z,99236.13
2023-03-19T10:26:45.759Z,99234.19
2023-03-19T10:27:54.452Z,99231.56
2023-03-19T10:29:11.845Z,99239.56
2023-03-19T10:30:16.671Z,99227.78
2023-03-19T10:31:18.958Z,99231.91
2023-03-19T10:32:39.154Z,99231.91
2023-03-19T10:33:52.119Z,99235.75
2023-03-19T10:34:54.500Z,99228.97
2023-03-19T10:36:02.012Z,99228.63
2023-03-19T10:37:16.845Z,99230.44
2023-03-19T10:38:22.510Z,99228.50
2023-03-19T10:39:24.812Z,99228.69
2023-03-19T10:40:44.593Z,99228.00
2023-03-19T10:42:10.138Z,99229.44
2023-03-19T10:43:25.530Z,99228.53
2023-03-19T10:44:31.608Z,99224.94
2023-03-19T10:45:38.455Z,99230.16
2023-03-19T10:46:41.749Z,99225.19
2023-03-19T10:47:44.933Z,99223.53
2023-03-19T10:48:47.665Z,99222.31
2023-03-19T10:49:51.018Z,99223.19
2023-03-19T10:50:57.868Z,99226.44
2023-03-19T10:52:00.240Z,99216.06
2023-03-19T10:53:23.823Z,99226.34
2023-03-19T10:54:27.570Z,99222.09
2023-03-19T10:55:31.166Z,99221.63
2023-03-19T10:56:35.115Z,99216.25
2023-03-19T10:57:43.203Z,99217.47
2023-03-19T10:58:59.088Z,99218.09
2023-03-19T11:00:06.252Z,99212.78
2023-03-19T11:01:13.004Z,99222.25
2023-03-19T11:02:23.969Z,99218.78
2023-03-19T11:03:49.247Z,99207.88
2023-03-19T11:05:19.011Z,99207.22
2023-03-19T11:06:40.480Z,99212.75
2023-03-19T11:07:42.741Z,99204.84
2023-03-19T11:08:58.562Z,99205.81
2023-03-19T11:10:02.818Z,99197.03
2023-03-19T11:11:05.352Z,99205.31
2023-03-19T11:12:34.497Z,99204.56
2023-03-19T11:13:37.261Z,99203.19
2023-03-19T11:14:44.480Z,99198.34
2023-03-19T11:15:47.824Z,99204.41
2023-03-19T11:16:57.536Z,99207.94
2023-03-19T11:18:06.589Z,99198.16
2023-03-19T11:19:20.210Z,99202.81
2023-03-19T11:20:27.810Z,99196.75
2023-03-19T11:21:32.976Z,99207.50
2023-03-19T11:22:39.305Z,99199.09
2023-03-19T11:23:42.742Z,99200.78
2023-03-19T11:24:57.030Z,99202.06
2023-03-19T11:26:01.698Z,99199.50
2023-03-19T11:27:05.402Z,99205.69
2023-03-19T11:28:17.309Z,99204.78
2023-03-19T11:29:21.256Z,99205.84
2023-03-19T11:30:24.196Z,99201.00
2023-03-19T11:31:52.732Z,99202.97
2023-03-19T11:33:13.892Z,99204.19
2023-03-19T11:34:19.073Z,99200.31
2023-03-19T11:35:28.698Z,99193.28
2023-03-19T11:36:41.571Z,99206.84
2023-03-19T11:38:02.728Z,99208.75
2023-03-19T11:39:35.646Z,99202.97
2023-03-19T11:40:53.389Z,99200.84
2023-03-19T11:42:21.443Z,99205.09
2023-03-19T11:43:32.588Z,99207.34
2023-03-19T11:44:43.477Z,99204.44
2023-03-19T11:46:00.163Z,99208.22
2023-03-19T11:47:26.359Z,99207.63
2023-03-19T11:48:35.328Z,99205.56
2023-03-19T11:49:51.386Z,99202.22
2023-03-19T11:51:09.317Z,99196.91
2023-03-19T11:52:18.779Z,99194.47
2023-03-19T11:53:27.007Z,99212.78
2023-03-19T11:54:38.393Z,99210.81
2023-03-19T11:55:49.518Z,99211.88
2023-03-19T11:57:01.010Z,99203.59
2023-03-19T11:58:03.310Z,99207.13
2023-03-19T11:59:18.412Z,99213.06
2023-03-19T12:00:51.484Z,99203.19
2023-03-19T12:01:59.486Z,99207.22
2023-03-19T12:03:39.088Z,99212.34
2023-03-19T12:04:47.823Z,99217.31
2023-03-19T12:06:06.181Z,99209.78
2023-03-19T12:07:20.394Z,99208.28
2023-03-19T12:08:51.008Z,99206.00
2023-03-19T12:10:16.358Z,99206.09
2023-03-19T12:11:33.080Z,99211.66
2023-03-19T12:13:00.861Z,99214.91
2023-03-19T12:14:32.548Z,99205.31
2023-03-19T12:15:58.088Z,99215.09
2023-03-19T12:17:37.426Z,99212.41
2023-03-19T12:18:52.232Z,99209.13
2023-03-19T12:20:47.919Z,99205.72
2023-03-19T12:22:04.513Z,99205.03
2023-03-19T12:23:16.612Z,99199.09
2023-03-19T12:24:32.922Z,99198.63
2023-03-19T12:25:53.997Z,99186.63
2023-03-19T12:27:03.595Z,99195.66
2023-03-19T12:28:56.378Z,99186.34
2023-03-19T12:30:30.195Z,99193.94
2023-03-19T12:31:53.797Z,99196.16
2023-03-19T12:33:25.423Z,99192.13
2023-03-19T12:34:48.582Z,99195.75
2023-03-19T12:35:55.458Z,99196.94
2023-03-19T12:37:05.771Z,99194.88
2023-03-19T12:38:18.734Z,99197.28
2023-03-19T12:39:29.658Z,99200.25
2023-03-19T12:40:38.756Z,99192.13
2023-03-19T12:41:43.867Z,99200.03
2023-03-19T12:42:46.583Z,99205.28
2023-03-19T12:44:09.567Z,99203.31
2023-03-19T12:45:32.562Z,99200.47
2023-03-19T12:46:55.724Z,99199.09
2023-03-19T12:48:16.477Z,99205.72
2023-03-19T12:49:41.484Z,99202.31
2023-03-19T12:50:49.466Z,99189.44
2023-03-19T12:51:57.267Z,99198.13
2023-03-19T12:53:43.790Z,99194.34
2023-03-19T12:54:55.423Z,99197.66
2023-03-19T12:56:13.421Z,99201.75
2023-03-19T12:57:34.261Z,99200.38
2023-03-19T12:59:00.440Z,99204.66
2023-03-19T13:00:17.105Z,99209.47
2023-03-19T13:01:30.518Z,99208.59
2023-03-19T13:03:15.124Z,99204.13
2023-03-19T13:04:55.684Z,99211.25
2023-03-19T13:06:24.736Z,99208.50
2023-03-19T13:08:02.499Z,99205.94
2023-03-19T13:09:19.410Z,99208.69
2023-03-19T13:10:23.278Z,99203.72
2023-03-19T13:11:35.649Z,99203.22
2023-03-19T13:12:39.372Z,99200.75
2023-03-19T13:14:17.812Z,99201.59
2023-03-19T13:15:33.566Z,99211.78
2023-03-19T13:17:03.086Z,99197.34
2023-03-19T13:18:59.893Z,99196.09